Time;durP1;ratioP1;P1;durP2;ratioP2;P2;SDS_P1;SDS_P2;PMS_P1;PMS_P2;Temp;Humidity;BMP_temperature;BMP_pressure;BME280_temperature;BME280_humidity;BME280_pressure;Samples;Min_cycle;Max_cycle;Signal;HPM_P1;HPM_P2
2022/03/26 00:00:52;;;;;;;50.93;22.87;;;8.00;99.90;;;;;;4441428;32;20201;-72
2022/03/26 00:03:19;;;;;;;52.13;22.77;;;8.00;99.90;;;;;;4441745;32;20176;-72
2022/03/26 00:05:46;;;;;;;50.80;22.60;;;7.90;99.90;;;;;;4440128;32;20201;-72
2022/03/26 00:08:13;;;;;;;49.83;22.20;;;7.90;99.90;;;;;;4440885;32;20209;-72
2022/03/26 00:10:41;;;;;;;48.13;22.37;;;7.90;99.90;;;;;;4439995;32;20194;-72
2022/03/26 00:13:09;;;;;;;44.87;22.17;;;7.90;99.90;;;;;;4439233;32;20229;-72
2022/03/26 00:15:36;;;;;;;52.23;22.90;;;7.80;99.90;;;;;;4440630;32;20209;-72
2022/03/26 00:18:03;;;;;;;53.57;23.17;;;7.70;99.90;;;;;;4440086;32;20194;-72
2022/03/26 00:20:30;;;;;;;48.93;21.90;;;7.70;99.90;;;;;;4440754;32;20433;-72
2022/03/26 00:22:57;;;;;;;49.53;23.07;;;7.70;99.90;;;;;;4440281;32;20151;-73
2022/03/26 00:25:23;;;;;;;47.93;23.33;;;7.70;99.90;;;;;;4440978;32;20178;-72
2022/03/26 00:27:50;;;;;;;48.17;22.97;;;7.60;99.90;;;;;;4440296;32;20529;-72
2022/03/26 00:30:17;;;;;;;53.20;23.97;;;7.60;99.90;;;;;;4440947;32;20231;-72
2022/03/26 00:32:44;;;;;;;51.37;22.93;;;7.60;99.90;;;;;;4441435;32;20150;-72
2022/03/26 00:35:11;;;;;;;49.07;23.53;;;7.60;99.90;;;;;;4453219;32;20181;-72
2022/03/26 00:37:40;;;;;;;52.03;22.90;;;7.50;99.90;;;;;;4440231;32;20174;-72
2022/03/26 00:40:09;;;;;;;52.20;24.17;;;7.50;99.90;;;;;;4440605;32;20456;-72
2022/03/26 00:42:36;;;;;;;45.43;23.07;;;7.50;99.90;;;;;;4440347;32;20516;-72
2022/03/26 00:45:03;;;;;;;46.50;23.03;;;7.40;99.90;;;;;;4439419;32;20185;-72
2022/03/26 00:47:30;;;;;;;52.13;24.00;;;7.40;99.90;;;;;;4438740;32;20213;-72
2022/03/26 00:49:57;;;;;;;46.57;23.93;;;7.40;99.90;;;;;;4438943;32;20205;-72
2022/03/26 00:52:24;;;;;;;49.30;23.37;;;7.40;99.90;;;;;;4438845;32;20178;-72
2022/03/26 00:54:51;;;;;;;51.70;24.03;;;7.30;99.90;;;;;;4439830;32;20388;-72
2022/03/26 00:57:18;;;;;;;47.30;22.30;;;7.30;99.90;;;;;;4438927;32;20233;-72
2022/03/26 00:59:45;;;;;;;47.07;23.13;;;7.30;99.90;;;;;;4440018;32;20174;-72
2022/03/26 01:02:12;;;;;;;51.80;23.67;;;7.30;99.90;;;;;;4438819;32;20171;-72
2022/03/26 01:04:39;;;;;;;51.40;23.63;;;7.20;99.90;;;;;;4440516;32;20169;-72
2022/03/26 01:07:06;;;;;;;49.50;23.97;;;7.20;99.90;;;;;;4439987;32;20206;-72
2022/03/26 01:09:34;;;;;;;47.00;22.97;;;7.20;99.90;;;;;;4438572;32;20182;-72
2022/03/26 01:12:01;;;;;;;47.93;23.03;;;7.10;99.90;;;;;;4440062;32;20185;-72
2022/03/26 01:14:28;;;;;;;48.50;23.03;;;7.10;99.90;;;;;;4439832;32;20442;-72
2022/03/26 01:16:55;;;;;;;52.53;23.20;;;7.10;99.90;;;;;;4439995;32;20195;-72
2022/03/26 01:19:22;;;;;;;49.40;22.77;;;7.10;99.90;;;;;;4439696;32;20166;-72
2022/03/26 01:21:49;;;;;;;45.13;22.23;;;7.10;99.90;;;;;;4439623;32;20162;-72
2022/03/26 01:24:17;;;;;;;48.13;23.50;;;7.10;99.90;;;;;;4440154;32;20169;-71
2022/03/26 01:26:44;;;;;;;47.83;23.07;;;7.00;99.90;;;;;;4439102;32;20229;-72
2022/03/26 01:29:11;;;;;;;49.27;22.77;;;7.10;99.90;;;;;;4439280;32;20209;-72
2022/03/26 01:31:38;;;;;;;44.33;22.37;;;7.00;99.90;;;;;;4439579;32;20231;-72
2022/03/26 01:34:05;;;;;;;52.50;23.70;;;7.00;99.90;;;;;;4439816;32;20468;-71
2022/03/26 01:36:32;;;;;;;44.90;21.07;;;7.00;99.90;;;;;;4438254;32;20224;-71
2022/03/26 01:38:59;;;;;;;47.37;22.20;;;7.10;99.90;;;;;;4438929;32;20194;-71
2022/03/26 01:41:26;;;;;;;43.87;21.70;;;7.00;99.90;;;;;;4440685;32;20433;-71
2022/03/26 01:43:53;;;;;;;43.10;21.57;;;7.00;99.90;;;;;;4438458;32;20193;-72
2022/03/26 01:46:20;;;;;;;43.03;20.97;;;7.00;99.90;;;;;;4439436;32;20265;-72
2022/03/26 01:48:49;;;;;;;49.17;22.70;;;7.00;99.90;;;;;;4439147;32;20200;-71
2022/03/26 01:51:17;;;;;;;47.67;20.90;;;7.00;99.90;;;;;;4438002;32;20196;-71
2022/03/26 01:53:50;;;;;;;46.57;20.70;;;7.00;99.90;;;;;;4438481;32;20173;-71
2022/03/26 01:56:18;;;;;;;44.83;21.30;;;7.00;99.90;;;;;;4438746;32;20316;-72
2022/03/26 01:58:46;;;;;;;45.57;20.47;;;7.00;99.90;;;;;;4441212;32;20200;-71
2022/03/26 02:01:13;;;;;;;47.57;21.03;;;7.00;99.90;;;;;;4439987;32;20166;-71
2022/03/26 02:03:41;;;;;;;43.90;20.63;;;7.00;99.90;;;;;;4439363;32;20149;-71
2022/03/26 02:06:08;;;;;;;43.90;21.50;;;7.00;99.90;;;;;;4438685;32;20177;-72
2022/03/26 02:08:35;;;;;;;42.73;20.20;;;7.00;99.90;;;;;;4438955;32;20178;-71
2022/03/26 02:11:03;;;;;;;42.50;20.40;;;7.00;99.90;;;;;;4440009;32;20154;-71
2022/03/26 02:13:53;;;;;;;43.47;19.10;;;7.00;99.90;;;;;;4439030;32;20178;-71
2022/03/26 02:16:21;;;;;;;42.27;20.20;;;7.00;99.90;;;;;;4437615;32;20447;-71
2022/03/26 02:18:49;;;;;;;40.47;19.43;;;7.00;99.90;;;;;;4439688;32;20201;-72
2022/03/26 02:21:17;;;;;;;39.80;18.90;;;7.00;99.90;;;;;;4439190;32;20189;-72
2022/03/26 02:23:46;;;;;;;37.90;18.73;;;7.00;99.90;;;;;;4437516;32;20535;-71
2022/03/26 02:26:16;;;;;;;37.67;18.40;;;7.00;99.90;;;;;;4439563;32;20173;-71
2022/03/26 02:28:49;;;;;;;36.60;17.53;;;7.00;99.90;;;;;;4450830;32;20215;-71
2022/03/26 02:31:16;;;;;;;40.67;19.00;;;7.00;99.90;;;;;;4439771;32;20182;-72
2022/03/26 02:33:44;;;;;;;39.03;18.17;;;7.00;99.90;;;;;;4438698;32;20201;-71
2022/03/26 02:36:11;;;;;;;39.93;18.07;;;7.00;99.90;;;;;;4441684;32;20204;-72
2022/03/26 02:38:38;;;;;;;40.80;17.53;;;7.10;99.90;;;;;;4442382;32;20430;-71
2022/03/26 02:41:07;;;;;;;38.17;17.97;;;7.10;99.90;;;;;;4444134;32;20468;-71
2022/03/26 02:43:34;;;;;;;38.00;17.67;;;7.00;99.90;;;;;;4441082;32;20189;-71
2022/03/26 02:46:01;;;;;;;39.73;18.63;;;7.10;99.90;;;;;;4441270;32;20179;-71
2022/03/26 02:48:30;;;;;;;40.90;17.60;;;7.00;99.90;;;;;;4441362;32;20231;-71
2022/03/26 02:50:57;;;;;;;37.37;18.07;;;7.00;99.90;;;;;;4440349;32;20580;-72
2022/03/26 02:53:24;;;;;;;35.70;17.27;;;7.00;99.90;;;;;;4441770;32;20427;-72
2022/03/26 02:55:52;;;;;;;36.33;18.27;;;7.00;99.90;;;;;;4440525;32;20186;-71
2022/03/26 02:58:20;;;;;;;35.30;17.50;;;7.00;99.90;;;;;;4441369;32;20524;-72
2022/03/26 03:00:47;;;;;;;37.47;18.37;;;7.00;99.90;;;;;;4443084;32;20445;-71
2022/03/26 03:03:14;;;;;;;39.63;17.73;;;7.00;99.90;;;;;;4440308;32;20197;-71
2022/03/26 03:05:41;;;;;;;35.80;17.20;;;7.00;99.90;;;;;;4440734;32;20235;-71
2022/03/26 03:08:08;;;;;;;39.33;17.90;;;7.00;99.90;;;;;;4440218;32;20178;-71
2022/03/26 03:10:35;;;;;;;35.63;17.00;;;7.00;99.90;;;;;;4440154;32;20254;-71
2022/03/26 03:13:02;;;;;;;38.77;18.33;;;6.90;99.90;;;;;;4440434;32;20250;-71
2022/03/26 03:15:29;;;;;;;41.90;18.13;;;6.90;99.90;;;;;;4441648;32;20175;-71
2022/03/26 03:17:56;;;;;;;38.83;18.87;;;6.90;99.90;;;;;;4440427;32;20197;-71
2022/03/26 03:20:23;;;;;;;42.57;19.67;;;6.80;99.90;;;;;;4440150;32;20190;-71
2022/03/26 03:22:50;;;;;;;40.70;18.93;;;6.80;99.90;;;;;;4439835;32;20538;-71
2022/03/26 03:25:17;;;;;;;39.13;19.20;;;6.70;99.90;;;;;;4441308;32;20181;-72
2022/03/26 03:27:44;;;;;;;42.10;19.23;;;6.70;99.90;;;;;;4441601;32;20196;-71
2022/03/26 03:30:11;;;;;;;40.43;19.27;;;6.70;99.90;;;;;;4439756;32;20201;-71
2022/03/26 03:32:38;;;;;;;42.43;19.63;;;6.80;99.90;;;;;;4442592;32;20201;-72
2022/03/26 03:35:05;;;;;;;43.87;20.23;;;6.80;99.90;;;;;;4441279;32;20178;-71
2022/03/26 03:37:40;;;;;;;42.63;20.23;;;6.70;99.90;;;;;;4440071;32;20192;-72
2022/03/26 03:40:08;;;;;;;42.40;20.20;;;6.80;99.90;;;;;;4441224;32;20215;-71
2022/03/26 03:42:35;;;;;;;41.07;20.40;;;6.70;99.90;;;;;;4440915;32;20174;-71
2022/03/26 03:45:03;;;;;;;41.27;19.97;;;6.70;99.90;;;;;;4439377;32;20182;-71
2022/03/26 03:47:30;;;;;;;41.60;20.50;;;6.70;99.90;;;;;;4439902;32;20174;-71
2022/03/26 03:49:57;;;;;;;38.70;20.40;;;6.80;99.90;;;;;;4440594;32;20278;-71
2022/03/26 03:52:24;;;;;;;44.00;20.77;;;6.80;99.90;;;;;;4441098;32;20198;-71
2022/03/26 03:54:51;;;;;;;38.80;18.83;;;6.80;99.90;;;;;;4439459;32;20405;-70
2022/03/26 03:57:18;;;;;;;43.20;19.90;;;6.70;99.90;;;;;;4439679;32;20201;-71
2022/03/26 03:59:45;;;;;;;41.10;19.30;;;6.80;99.90;;;;;;4441131;32;20194;-71
2022/03/26 04:02:12;;;;;;;42.40;19.80;;;6.80;99.90;;;;;;4440711;32;20178;-71
2022/03/26 04:04:41;;;;;;;39.80;19.43;;;6.80;99.90;;;;;;4440416;32;20528;-71
2022/03/26 04:07:08;;;;;;;42.53;19.80;;;6.90;99.90;;;;;;4440994;32;20578;-71
2022/03/26 04:09:36;;;;;;;43.37;19.67;;;6.90;99.90;;;;;;4441319;32;20147;-72
2022/03/26 04:12:04;;;;;;;41.90;20.00;;;7.00;99.90;;;;;;4440830;32;20178;-72
2022/03/26 04:14:32;;;;;;;41.13;19.63;;;7.00;99.90;;;;;;4442291;32;20150;-72
2022/03/26 04:16:59;;;;;;;38.13;18.30;;;7.10;99.90;;;;;;4440229;32;20189;-72
2022/03/26 04:19:27;;;;;;;39.20;18.97;;;7.10;99.90;;;;;;4440544;32;20162;-72
2022/03/26 04:21:56;;;;;;;37.57;17.97;;;7.20;99.90;;;;;;4439491;32;20169;-72
2022/03/26 04:24:23;;;;;;;35.80;17.67;;;7.20;99.90;;;;;;4441639;32;20143;-72
2022/03/26 04:26:52;;;;;;;36.40;18.03;;;7.20;99.90;;;;;;4439804;32;20209;-72
2022/03/26 04:29:19;;;;;;;45.07;18.37;;;7.30;99.90;;;;;;4441000;32;20177;-72
2022/03/26 04:31:46;;;;;;;41.00;18.70;;;7.40;99.90;;;;;;4440821;32;20165;-72
2022/03/26 04:34:13;;;;;;;36.30;17.63;;;7.40;99.90;;;;;;4439420;32;20162;-72
2022/03/26 04:36:40;;;;;;;41.30;18.13;;;7.40;99.90;;;;;;4441429;32;20364;-72
2022/03/26 04:39:07;;;;;;;41.70;17.50;;;7.50;99.90;;;;;;4438706;32;20362;-72
2022/03/26 04:41:34;;;;;;;40.50;18.23;;;7.60;99.90;;;;;;4439176;32;20173;-72
2022/03/26 04:44:02;;;;;;;37.53;18.17;;;7.50;99.90;;;;;;4438535;32;20175;-72
2022/03/26 04:46:29;;;;;;;41.10;18.20;;;7.60;99.90;;;;;;4439095;32;20178;-73
2022/03/26 04:48:56;;;;;;;40.80;18.53;;;7.60;99.90;;;;;;4439046;32;20193;-72
2022/03/26 04:51:23;;;;;;;36.77;18.13;;;7.60;99.90;;;;;;4439337;32;20536;-72
2022/03/26 04:53:50;;;;;;;41.03;17.63;;;7.60;99.90;;;;;;4439073;32;20170;-72
2022/03/26 04:56:17;;;;;;;42.10;18.37;;;7.60;99.90;;;;;;4438714;32;20175;-72
2022/03/26 04:58:44;;;;;;;41.53;17.80;;;7.60;99.90;;;;;;4438933;32;20205;-72
2022/03/26 05:01:11;;;;;;;39.47;19.47;;;7.60;99.90;;;;;;4438814;32;20435;-72
2022/03/26 05:03:38;;;;;;;40.93;19.20;;;7.60;99.90;;;;;;4438457;32;20213;-72
2022/03/26 05:06:05;;;;;;;40.80;19.10;;;7.60;99.90;;;;;;4438347;32;20205;-72
2022/03/26 05:08:32;;;;;;;40.80;18.63;;;7.60;99.90;;;;;;4440046;32;20446;-72
2022/03/26 05:10:59;;;;;;;42.10;20.07;;;7.60;99.90;;;;;;4440535;32;20370;-72
2022/03/26 05:13:26;;;;;;;43.40;19.70;;;7.60;99.90;;;;;;4438527;32;20250;-71
2022/03/26 05:15:53;;;;;;;43.73;18.47;;;7.60;99.90;;;;;;4439841;32;20487;-72
2022/03/26 05:18:25;;;;;;;44.13;19.33;;;7.60;99.90;;;;;;4438485;32;20183;-72
2022/03/26 05:20:55;;;;;;;39.07;19.17;;;7.70;99.90;;;;;;4438610;32;20205;-71
2022/03/26 05:23:24;;;;;;;41.50;19.30;;;7.70;99.90;;;;;;4437912;32;20506;-71
2022/03/26 05:25:51;;;;;;;39.13;18.77;;;7.70;99.90;;;;;;4440114;32;20380;-71
2022/03/26 05:28:18;;;;;;;41.77;19.10;;;7.80;99.90;;;;;;4438692;32;20210;-72
2022/03/26 05:30:50;;;;;;;40.50;19.30;;;7.80;99.90;;;;;;4439736;32;20225;-71
2022/03/26 05:33:18;;;;;;;37.47;18.17;;;7.90;99.90;;;;;;4437887;32;20554;-71
2022/03/26 05:35:45;;;;;;;40.20;19.03;;;7.90;99.90;;;;;;4439920;32;20174;-72
2022/03/26 05:38:12;;;;;;;37.00;18.80;;;8.00;99.90;;;;;;4438564;32;20620;-72
2022/03/26 05:40:39;;;;;;;45.37;19.43;;;8.00;99.90;;;;;;4439753;32;20373;-72
2022/03/26 05:43:06;;;;;;;37.80;17.97;;;8.00;99.90;;;;;;4439384;32;20557;-72
2022/03/26 05:45:34;;;;;;;37.47;17.97;;;8.10;99.90;;;;;;4437860;32;20210;-71
2022/03/26 05:48:02;;;;;;;39.17;18.30;;;8.20;99.90;;;;;;4438276;32;20555;-72
2022/03/26 05:50:29;;;;;;;39.63;18.20;;;8.30;99.90;;;;;;4438245;32;20309;-72
2022/03/26 05:52:56;;;;;;;38.87;18.03;;;8.30;99.90;;;;;;4438004;32;20190;-71
2022/03/26 05:55:23;;;;;;;39.87;17.53;;;8.40;99.90;;;;;;4437930;32;20452;-71
2022/03/26 05:57:50;;;;;;;42.00;18.03;;;8.50;99.90;;;;;;4438486;32;20198;-73
2022/03/26 06:00:17;;;;;;;42.03;17.60;;;8.60;99.90;;;;;;4437773;32;20527;-72
2022/03/26 06:02:44;;;;;;;37.33;17.00;;;8.60;99.90;;;;;;4438818;32;20486;-72
2022/03/26 06:05:12;;;;;;;37.00;17.40;;;8.60;99.90;;;;;;4437680;32;20212;-72
2022/03/26 06:07:39;;;;;;;40.27;17.37;;;8.70;99.90;;;;;;4439609;32;20453;-72
2022/03/26 06:10:06;;;;;;;36.07;17.43;;;8.60;99.90;;;;;;4441253;32;20196;-72
2022/03/26 06:12:35;;;;;;;39.33;18.07;;;8.70;99.90;;;;;;4441993;32;20194;-73
2022/03/26 06:15:06;;;;;;;39.27;17.10;;;8.80;99.90;;;;;;4441162;32;20182;-72
2022/03/26 06:17:33;;;;;;;40.23;17.50;;;8.80;99.90;;;;;;4441015;32;20166;-72
2022/03/26 06:20:00;;;;;;;35.27;17.70;;;8.90;99.90;;;;;;4440581;32;20189;-72
2022/03/26 06:22:27;;;;;;;38.67;18.73;;;8.90;99.90;;;;;;4442497;32;20567;-72
2022/03/26 06:24:54;;;;;;;32.97;17.03;;;9.00;99.90;;;;;;4443570;32;20413;-72
2022/03/26 06:27:21;;;;;;;34.87;18.10;;;9.00;99.90;;;;;;4442488;32;20209;-72
2022/03/26 06:29:48;;;;;;;35.40;16.67;;;9.00;99.90;;;;;;4440685;32;20197;-72
2022/03/26 06:32:15;;;;;;;38.13;17.40;;;9.10;99.90;;;;;;4440944;32;20193;-71
2022/03/26 06:34:42;;;;;;;37.43;17.10;;;9.10;99.90;;;;;;4440290;32;20508;-71
2022/03/26 06:37:09;;;;;;;39.40;17.03;;;9.10;99.90;;;;;;4442340;32;20166;-71
2022/03/26 06:39:36;;;;;;;35.10;17.33;;;9.10;99.90;;;;;;4441717;32;20170;-72
2022/03/26 06:42:04;;;;;;;38.57;17.37;;;9.20;99.90;;;;;;4442333;32;20180;-72
2022/03/26 06:44:30;;;;;;;41.00;17.43;;;9.30;99.90;;;;;;4441913;32;20147;-72
2022/03/26 06:46:57;;;;;;;37.03;17.27;;;9.30;99.90;;;;;;4443262;32;20417;-72
2022/03/26 06:49:27;;;;;;;35.37;16.13;;;9.40;99.90;;;;;;4440754;32;20186;-72
2022/03/26 06:51:54;;;;;;;36.40;16.10;;;9.40;99.90;;;;;;4440757;32;20183;-72
2022/03/26 06:54:21;;;;;;;39.00;16.17;;;9.50;99.90;;;;;;4440876;32;20201;-72
2022/03/26 06:56:47;;;;;;;35.47;16.90;;;9.60;99.90;;;;;;4442606;32;20178;-72
2022/03/26 06:59:14;;;;;;;37.87;17.00;;;9.60;99.90;;;;;;4440263;32;20212;-72
2022/03/26 07:01:41;;;;;;;32.13;15.97;;;9.70;99.90;;;;;;4442768;32;20493;-72
2022/03/26 07:04:08;;;;;;;36.30;16.30;;;9.70;99.90;;;;;;4443022;32;20147;-72
2022/03/26 07:06:35;;;;;;;33.80;15.43;;;9.90;99.90;;;;;;4443260;32;20138;-72
2022/03/26 07:09:02;;;;;;;37.77;15.47;;;10.00;99.90;;;;;;4442245;32;20191;-72
2022/03/26 07:11:29;;;;;;;32.77;14.23;;;10.20;99.90;;;;;;4441416;32;20582;-72
2022/03/26 07:13:56;;;;;;;30.60;14.40;;;10.30;99.90;;;;;;4440276;32;20201;-72
2022/03/26 07:16:22;;;;;;;30.57;12.93;;;10.50;99.90;;;;;;4441104;32;20174;-72
2022/03/26 07:18:49;;;;;;;30.93;13.90;;;10.70;99.90;;;;;;4440424;32;20229;-72
2022/03/26 07:21:16;;;;;;;28.50;12.27;;;10.80;99.90;;;;;;4438757;32;20225;-72
2022/03/26 07:23:43;;;;;;;31.87;12.23;;;11.10;99.90;;;;;;4440310;32;20490;-72
2022/03/26 07:26:10;;;;;;;39.67;11.70;;;11.20;99.90;;;;;;4440156;32;20163;-72
2022/03/26 07:28:37;;;;;;;76.97;12.67;;;11.30;99.90;;;;;;4442661;32;20138;-72
2022/03/26 07:31:06;;;;;;;38.07;12.13;;;11.30;99.90;;;;;;4440555;32;20215;-72
2022/03/26 07:33:33;;;;;;;28.30;12.10;;;11.20;99.90;;;;;;4440876;32;20135;-72
2022/03/26 07:36:00;;;;;;;29.63;12.20;;;11.20;99.90;;;;;;4439469;32;20175;-72
2022/03/26 07:38:27;;;;;;;30.60;11.70;;;11.20;99.90;;;;;;4440608;32;20232;-72
2022/03/26 07:40:54;;;;;;;23.43;11.07;;;11.10;99.90;;;;;;4440861;32;20561;-72
2022/03/26 07:43:21;;;;;;;31.27;12.00;;;11.20;99.90;;;;;;4439677;32;20201;-72
2022/03/26 07:45:48;;;;;;;31.93;12.10;;;11.20;99.90;;;;;;4440794;32;20143;-72
2022/03/26 07:48:15;;;;;;;24.73;11.97;;;11.10;99.90;;;;;;4442681;32;20387;-71
2022/03/26 07:50:42;;;;;;;30.13;12.03;;;11.20;99.90;;;;;;4439420;32;20175;-72
2022/03/26 07:53:10;;;;;;;27.63;13.73;;;11.40;99.90;;;;;;4439181;32;20244;-71
2022/03/26 07:55:36;;;;;;;32.07;12.63;;;11.30;99.90;;;;;;4439429;32;20186;-71
2022/03/26 07:58:03;;;;;;;31.33;13.77;;;11.30;99.90;;;;;;4439624;32;20559;-71
2022/03/26 08:00:30;;;;;;;32.57;13.97;;;11.30;99.90;;;;;;4440535;32;20174;-71
2022/03/26 08:02:57;;;;;;;33.70;13.93;;;11.40;99.90;;;;;;4439670;32;20242;-72
2022/03/26 08:05:24;;;;;;;31.77;13.63;;;11.60;99.90;;;;;;4441940;32;20194;-71
2022/03/26 08:07:51;;;;;;;28.83;13.70;;;11.60;99.90;;;;;;4441341;32;20168;-72
2022/03/26 08:10:18;;;;;;;35.90;14.67;;;11.60;99.90;;;;;;4441394;32;20178;-71
2022/03/26 08:12:45;;;;;;;45.20;15.23;;;11.60;99.90;;;;;;4439292;32;20195;-71
2022/03/26 08:15:12;;;;;;;35.10;14.27;;;11.70;99.90;;;;;;4439597;32;20178;-71
2022/03/26 08:17:39;;;;;;;33.93;14.27;;;11.80;99.90;;;;;;4440559;32;20277;-71
2022/03/26 08:20:07;;;;;;;29.37;14.83;;;11.70;99.90;;;;;;4439541;32;20190;-71
2022/03/26 08:22:35;;;;;;;28.17;13.90;;;11.70;99.90;;;;;;4439816;32;20421;-71
2022/03/26 08:25:02;;;;;;;32.10;14.13;;;11.70;99.90;;;;;;4438670;32;20185;-72
2022/03/26 08:27:29;;;;;;;35.93;14.63;;;11.70;99.90;;;;;;4441229;32;20166;-72
2022/03/26 08:29:56;;;;;;;31.53;14.60;;;12.00;99.90;;;;;;4439215;32;20193;-71
2022/03/26 08:32:22;;;;;;;29.57;14.90;;;12.50;99.90;;;;;;4438972;32;20178;-72
2022/03/26 08:34:49;;;;;;;29.73;13.80;;;13.20;99.90;;;;;;4438645;32;20301;-72
2022/03/26 08:37:17;;;;;;;27.60;13.73;;;13.30;99.90;;;;;;4438599;32;20237;-72
2022/03/26 08:39:43;;;;;;;31.60;13.83;;;13.40;99.90;;;;;;4438940;32;20223;-71
2022/03/26 08:42:10;;;;;;;30.40;13.03;;;13.10;99.90;;;;;;4438486;32;20216;-71
2022/03/26 08:44:37;;;;;;;29.07;12.83;;;12.90;99.90;;;;;;4440427;32;20142;-68
2022/03/26 08:47:05;;;;;;;28.67;12.70;;;12.90;99.90;;;;;;4426258;32;20197;-69
2022/03/26 08:49:34;;;;;;;30.97;13.10;;;13.30;99.90;;;;;;4439880;32;20513;-69
2022/03/26 08:52:01;;;;;;;28.80;12.60;;;13.60;99.90;;;;;;4438732;32;20182;-69
2022/03/26 08:54:28;;;;;;;26.87;12.53;;;13.70;99.90;;;;;;4439042;32;20242;-69
2022/03/26 08:56:55;;;;;;;30.10;11.70;;;13.80;99.90;;;;;;4440011;32;20169;-69
2022/03/26 08:59:23;;;;;;;26.80;12.27;;;13.60;99.90;;;;;;4440427;32;20159;-69
2022/03/26 09:01:51;;;;;;;25.23;11.97;;;13.40;99.90;;;;;;4438338;32;20562;-69
2022/03/26 09:04:18;;;;;;;23.00;10.47;;;13.20;99.90;;;;;;4438229;32;20504;-69
2022/03/26 09:06:46;;;;;;;24.67;11.20;;;13.40;99.90;;;;;;4439434;32;20154;-69
2022/03/26 09:09:15;;;;;;;21.70;10.50;;;13.50;99.90;;;;;;4438514;32;20173;-69
2022/03/26 09:11:43;;;;;;;20.87;11.10;;;13.40;99.90;;;;;;4438091;32;20200;-68
2022/03/26 09:14:12;;;;;;;19.50;10.03;;;13.40;99.90;;;;;;4438148;32;20178;-69
2022/03/26 09:16:39;;;;;;;19.33;9.10;;;13.30;99.90;;;;;;4439397;32;20226;-69
2022/03/26 09:19:06;;;;;;;19.13;8.77;;;13.00;99.90;;;;;;4438441;32;20457;-69
2022/03/26 09:21:33;;;;;;;18.00;8.70;;;12.90;99.90;;;;;;4439717;32;20205;-72
2022/03/26 09:24:00;;;;;;;17.23;8.90;;;12.80;99.90;;;;;;4439441;32;20182;-70
2022/03/26 09:26:26;;;;;;;20.43;9.10;;;12.70;99.90;;;;;;4437681;32;20229;-70
2022/03/26 09:28:53;;;;;;;23.73;9.17;;;12.60;99.90;;;;;;4438155;32;20532;-69
2022/03/26 09:31:20;;;;;;;23.40;10.37;;;12.60;99.90;;;;;;4438933;32;20182;-71
2022/03/26 09:33:48;;;;;;;20.63;10.10;;;12.50;99.90;;;;;;4438649;32;20173;-71
2022/03/26 09:36:15;;;;;;;23.00;11.13;;;12.60;99.90;;;;;;4437753;32;20488;-70
2022/03/26 09:38:41;;;;;;;22.37;10.80;;;12.70;99.90;;;;;;4437293;32;20204;-70
2022/03/26 09:41:40;;;;;;;19.17;10.53;;;12.60;99.90;;;;;;4483441;31;20285;-72
2022/03/26 09:44:08;;;;;;;20.50;10.43;;;12.50;99.90;;;;;;4469395;32;20520;-71
2022/03/26 09:46:35;;;;;;;18.60;10.40;;;12.50;99.90;;;;;;4468208;32;20287;-70
2022/03/26 09:49:03;;;;;;;23.53;11.83;;;12.50;99.90;;;;;;4466405;32;20421;-72
2022/03/26 09:51:32;;;;;;;20.57;11.07;;;12.50;99.90;;;;;;4467700;32;20536;-71
2022/03/26 09:53:59;;;;;;;22.87;11.80;;;12.50;99.90;;;;;;4467724;32;20173;-71
2022/03/26 09:56:28;;;;;;;24.43;12.30;;;12.60;99.90;;;;;;4468274;32;20158;-70
2022/03/26 09:58:56;;;;;;;27.87;13.90;;;12.60;99.90;;;;;;4466982;32;20208;-71
2022/03/26 10:01:25;;;;;;;32.20;14.10;;;12.40;99.90;;;;;;4454543;32;20214;-71
2022/03/26 10:04:10;;;;;;;28.13;14.10;;;12.30;99.90;;;;;;4466160;32;20219;-71
2022/03/26 10:06:48;;;;;;;27.50;14.03;;;12.00;99.90;;;;;;4467467;32;20224;-71
2022/03/26 10:09:31;;;;;;;31.53;15.83;;;11.90;99.90;;;;;;4467724;32;20197;-72
2022/03/26 10:12:12;;;;;;;33.50;15.63;;;11.70;99.90;;;;;;4467733;32;20170;-71
2022/03/26 10:14:46;;;;;;;28.73;15.83;;;11.70;99.90;;;;;;4467273;32;20200;-71
2022/03/26 10:17:22;;;;;;;30.43;16.63;;;11.60;99.90;;;;;;4466272;32;20228;-71
2022/03/26 10:19:50;;;;;;;32.33;17.90;;;11.50;99.90;;;;;;4468015;32;20154;-71
2022/03/26 10:22:26;;;;;;;33.60;19.00;;;11.50;99.90;;;;;;4467444;32;20134;-71
2022/03/26 10:24:55;;;;;;;30.67;17.77;;;11.40;99.90;;;;;;4465864;32;20248;-71
2022/03/26 10:27:22;;;;;;;33.00;18.70;;;11.30;99.90;;;;;;4466126;32;20253;-71
2022/03/26 10:29:56;;;;;;;37.73;19.70;;;11.20;99.90;;;;;;4466308;32;20174;-71
2022/03/26 10:32:39;;;;;;;32.73;19.20;;;11.10;99.90;;;;;;4466974;32;20217;-71
2022/03/26 10:35:11;;;;;;;33.93;19.97;;;11.00;99.90;;;;;;4466628;32;20173;-71
2022/03/26 10:37:44;;;;;;;32.47;19.10;;;10.80;99.90;;;;;;4466439;32;20169;-71
2022/03/26 10:40:23;;;;;;;30.83;17.47;;;10.70;99.90;;;;;;4465532;32;20205;-70
2022/03/26 10:42:56;;;;;;;31.50;17.37;;;10.80;99.90;;;;;;4466791;32;20515;-71
2022/03/26 10:45:24;;;;;;;35.23;18.57;;;10.80;99.90;;;;;;4468605;32;20141;-71
2022/03/26 10:47:56;;;;;;;32.23;18.37;;;10.70;99.90;;;;;;4466879;32;20270;-71
2022/03/26 10:50:31;;;;;;;37.03;18.97;;;10.40;99.90;;;;;;4467540;32;20204;-71
2022/03/26 10:53:03;;;;;;;33.47;18.70;;;10.40;99.90;;;;;;4455462;32;20512;-71
2022/03/26 10:55:31;;;;;;;33.33;19.37;;;10.30;99.90;;;;;;4456166;32;20523;-71
2022/03/26 10:58:01;;;;;;;33.87;18.60;;;10.30;99.90;;;;;;4451990;32;20201;-70
2022/03/26 11:00:28;;;;;;;32.57;19.03;;;10.30;99.90;;;;;;4443275;32;20172;-71
2022/03/26 11:02:57;;;;;;;31.60;18.67;;;10.40;99.90;;;;;;4457836;32;20135;-70
2022/03/26 11:05:25;;;;;;;36.73;18.33;;;10.40;99.90;;;;;;4449073;32;20229;-71
2022/03/26 11:07:53;;;;;;;34.00;18.30;;;10.40;99.90;;;;;;4441190;32;20186;-71
2022/03/26 11:10:24;;;;;;;31.70;17.70;;;10.40;99.90;;;;;;4439657;32;20462;-70
2022/03/26 11:12:51;;;;;;;30.47;18.10;;;10.40;99.90;;;;;;4439363;32;20206;-71
2022/03/26 11:15:31;;;;;;;30.97;17.53;;;10.40;99.90;;;;;;4441459;32;20531;-71
2022/03/26 11:18:18;;;;;;;30.27;16.03;;;10.50;99.90;;;;;;4441015;32;20389;-70
2022/03/26 11:21:03;;;;;;;29.03;15.93;;;10.50;99.90;;;;;;4439542;32;20200;-71
2022/03/26 11:23:48;;;;;;;26.17;15.67;;;10.50;99.90;;;;;;4440849;32;20509;-71
2022/03/26 11:26:25;;;;;;;32.17;15.77;;;10.60;99.90;;;;;;4441721;32;20161;-71
2022/03/26 11:29:26;;;;;;;30.03;15.73;;;10.70;99.90;;;;;;4440742;32;20200;-71
2022/03/26 11:32:43;;;;;;;30.67;16.37;;;10.80;99.90;;;;;;4439372;32;20254;-70
2022/03/26 11:35:16;;;;;;;29.33;15.90;;;11.00;99.90;;;;;;4440733;32;20166;-71
2022/03/26 11:37:54;;;;;;;28.53;14.90;;;11.10;99.90;;;;;;4439370;32;20179;-70
2022/03/26 11:40:43;;;;;;;32.07;14.90;;;11.10;99.90;;;;;;4438811;32;20294;-71
2022/03/26 11:43:11;;;;;;;30.37;15.17;;;11.10;99.90;;;;;;4440542;32;20204;-72
2022/03/26 11:51:28;;;;;;;25.57;13.73;;;11.20;99.90;;;;;;4439904;32;20167;-72
2022/03/26 11:54:13;;;;;;;29.20;12.70;;;11.40;99.90;;;;;;4441380;32;20182;-71
2022/03/26 11:56:40;;;;;;;27.10;12.73;;;11.30;99.90;;;;;;4440578;32;20186;-71
2022/03/26 11:59:16;;;;;;;23.90;12.23;;;11.30;99.90;;;;;;4441361;32;20143;-71
2022/03/26 12:01:48;;;;;;;25.20;12.70;;;11.30;99.90;;;;;;4441234;32;20150;-71
2022/03/26 12:04:17;;;;;;;23.47;12.90;;;11.30;99.90;;;;;;4441462;32;20165;-72
2022/03/26 12:06:48;;;;;;;26.20;12.47;;;11.20;99.90;;;;;;4440439;32;20227;-71
2022/03/26 12:09:33;;;;;;;22.33;11.83;;;11.50;99.90;;;;;;4442246;32;20143;-71
2022/03/26 12:12:21;;;;;;;24.00;11.30;;;11.40;99.90;;;;;;4438769;32;20245;-72
2022/03/26 12:15:04;;;;;;;21.20;11.70;;;11.10;99.90;;;;;;4441538;32;20231;-72
2022/03/26 12:17:53;;;;;;;22.03;11.07;;;11.00;99.90;;;;;;4439204;32;20202;-72
2022/03/26 12:20:25;;;;;;;20.77;10.80;;;11.00;99.90;;;;;;4440804;32;20204;-72
2022/03/26 12:23:04;;;;;;;21.30;11.13;;;10.90;99.90;;;;;;4438499;32;20186;-71
2022/03/26 12:25:33;;;;;;;21.00;11.10;;;10.90;99.90;;;;;;4438663;32;20240;-72
2022/03/26 12:28:00;;;;;;;20.93;11.20;;;10.90;99.90;;;;;;4440195;32;20191;-72
2022/03/26 12:30:27;;;;;;;19.70;11.50;;;11.10;99.90;;;;;;4438738;32;20181;-72
2022/03/26 12:32:55;;;;;;;20.87;11.37;;;11.10;99.90;;;;;;4438230;32;20294;-73
2022/03/26 12:35:22;;;;;;;19.93;11.30;;;11.10;99.90;;;;;;4439520;32;20229;-71
2022/03/26 12:37:53;;;;;;;20.47;11.63;;;11.10;99.90;;;;;;4439301;32;20166;-72
2022/03/26 12:40:21;;;;;;;19.30;11.20;;;11.00;99.90;;;;;;4438436;32;20266;-72
2022/03/26 12:42:53;;;;;;;19.43;10.80;;;11.00;99.90;;;;;;4440076;32;20164;-72
2022/03/26 12:45:20;;;;;;;19.90;11.40;;;11.00;99.90;;;;;;4439169;32;20167;-72
2022/03/26 12:47:48;;;;;;;20.17;11.03;;;11.00;99.90;;;;;;4439960;32;20154;-72